Saint Joseph, MI (49085)

5:25 PM EDT on August 27, 2015 (GMT -0400)
South of the High School | | Change Station
CLOSE
Current Station
Personal Weather Station
Location: Saint Joseph, MI
Elevation: 666 ft
Nearby Weather Stations

Elev 666 ft 42.09 °N, 86.49 °W | Updated 3 seconds ago

Overcast
Overcast
72.0 °F
Feels Like 76 °F
N
0.0
Wind Variable Wind from North
Gusts 0.0 mph

Today
High -- | Low -- °F
--% Chance of Precip.
Yesterday
High -- | Low -- °F
Precip. -- in
7:05 AM 8:28 PM
Waxing Gibbous, 95% visible
Pressure 30.16 in
Visibility 10.0 miles
Clouds Few 2900 ft
Scattered Clouds 3600 ft
Heat Index 76 °F
Dew Point 58 °F
Humidity 61%
Rainfall 0.00 in
Snow Depth Not available.
UV 4 out of 12
Pollen 9.70 out of 12
Air Quality Not available.
Flu Activity Not available.
METAR KBEH 272053Z AUTO 31003KT 10SM FEW029 SCT036 21/14 A3016 RMK AO2 SLP213 T02060139 58007
Pressure 30.16 in
Visibility 10.0 miles
Clouds Few 2900 ft
Scattered Clouds 3600 ft
Heat Index 76 °F
Dew Point 58 °F
Humidity 61%
Rainfall 0.00 in
Snow Depth Not available.
UV 4 out of 12
Pollen 9.70 out of 12
Air Quality Not available.
Flu Activity Not available.
METAR KBEH 272053Z AUTO 31003KT 10SM FEW029 SCT036 21/14 A3016 RMK AO2 SLP213 T02060139 58007

10-Day Weather Forecast

×

Almanac

Astronomy

Aug. 27, 2015 Rise Set
Actual Time
Civil Twilight
Nautical Twilight
Astronomical Twilight
Moon
Length of Visible Light
Length of Day
Tomorrow will be .
, % of the Moon is Illuminated

Today's Extremes

State Highs State Lows

Community

WunderPhotos

Upload Photos

1,850,235 photos uploaded!

WunderBlogs® & News

Nearby

Air Quality

  Air Quality AQ Index Pollutant
Not available.

Snow Depth

Station Depth Elevation

Earthquake Activity

City Distance Mag. Time & Date
Minimum magnitude displayed is 2.5.

Coastal Water Temperatures

Place Temperature

Stations

Nearby Weather Stations

Station Location Temp. Windchill Dew Point Humidity Wind Precip. Elev Updated Type